Aeroporto :
LOGIN :

Iscrizione | Disclaimer

   EN    FR    IT 

 










Sommario :    VFR   VFR Marginale   IFR   IFR Intensivo   IFR Molto Intensivo
Visibilità : 
Base nubi : 
>= 8 km
>= 3000ft
5 / 8 km
1000 / 3000 ft
1500m / 5 km
500 / 1000 ft
800 / 1500m
200 / 500 ft
< 800m
< 200 ft
Simboli :   Temporali  Nebbia  Neve Forte  Precipitazioni Forti  Vento > 20 kt
SIGMETs :   Varie  Temporali  Ghiacco  Turbolenza  Onda orograficha  Ceneri Vulcaniche






- Altitudine del aeroporto : 268 ft
- Codice IATA : BFS


EGAA - Belfast Aldergrove

ULTIMO METAR :
  • 180320Z AUTO 25009KT 9999 NCD 00/M01 Q1021

METARs OBSOLETI :
  • 180250Z 24009KT CAVOK 01/00 Q1021
  • 180220Z 23010KT CAVOK 02/01 Q1021
  • 180150Z 23008KT 9999 FEW048 02/01 Q1020
  • 180120Z 24009KT CAVOK 01/00 Q1020
  • 180050Z 24008KT CAVOK 02/01 Q1020

TAF TAF EGAA
Valido dal 18 a 00 ore il 19 a 00 ore UTC


172302Z 1800/1824 26008KT 9999 FEW040
PROB40 1820/1824 5000 BR
PROB30 1822/1824 3000 BR



MetMap, La meteo Aeronautica in un colpo d'occhio ! - Copyright ORBIFLY Dicembre 2007 - Disclaimer

ORBIFLY MET'MAP TEAM :

Programmazione e sviluppo : Alexandra Zaïnal
Concezione : Baudouin d'Aumeries
Aiuto per la programmazione : Marc-Olivier Méhu
Supporto tecnico e logistico : Manuel Goepfert
Aiuto per la traduzione : Arnaldo La Scala

Contatto : metmap@orbifly.com




FONTI E CREDITI :

   NOAA